createdAt,value
2023-04-06T00:00:18.858Z,59.70
2023-04-06T00:03:22.910Z,56.80
2023-04-06T00:05:59.081Z,59.40
2023-04-06T00:08:51.559Z,60.50
2023-04-06T00:11:33.480Z,64.40
2023-04-06T00:14:12.032Z,62.70
2023-04-06T00:16:52.031Z,58.30
2023-04-06T00:19:29.499Z,57.00
2023-04-06T00:22:06.459Z,53.60
2023-04-06T00:24:42.788Z,52.50
2023-04-06T00:27:14.653Z,48.90
2023-04-06T00:29:46.849Z,46.80
2023-04-06T00:32:19.952Z,49.80
2023-04-06T00:37:30.849Z,51.10
2023-04-06T00:40:08.489Z,55.90
2023-04-06T00:42:41.294Z,57.30
2023-04-06T00:45:19.147Z,55.70
2023-04-06T00:47:50.712Z,58.70
2023-04-06T00:50:23.234Z,55.60
2023-04-06T00:52:56.011Z,55.00
2023-04-06T00:55:34.434Z,53.30
2023-04-06T00:58:09.059Z,56.10
2023-04-06T01:01:11.339Z,53.80
2023-04-06T01:03:57.032Z,56.20
2023-04-06T01:06:35.048Z,58.10
2023-04-06T01:09:13.679Z,54.80
2023-04-06T01:11:46.783Z,54.30
2023-04-06T01:14:19.334Z,51.20
2023-04-06T01:17:06.447Z,53.60
2023-04-06T01:19:41.707Z,53.40
2023-04-06T01:22:30.024Z,52.00
2023-04-06T01:25:09.971Z,53.80
2023-04-06T01:28:01.500Z,54.90
2023-04-06T01:31:05.658Z,51.40
2023-04-06T01:34:02.529Z,56.90
2023-04-06T01:36:46.488Z,59.30
2023-04-06T01:39:39.965Z,58.10
2023-04-06T01:42:13.930Z,58.50
2023-04-06T01:44:48.907Z,58.10
2023-04-06T01:47:26.136Z,56.40
2023-04-06T01:49:58.138Z,54.90
2023-04-06T01:52:28.763Z,60.80
2023-04-06T01:55:02.539Z,58.30
2023-04-06T01:57:58.244Z,56.20
2023-04-06T02:00:38.410Z,59.20
2023-04-06T02:03:14.113Z,54.90
2023-04-06T02:05:50.553Z,55.10
2023-04-06T02:08:28.966Z,51.50
2023-04-06T02:10:59.359Z,49.80
2023-04-06T02:13:43.968Z,48.20
2023-04-06T02:16:21.458Z,53.30
2023-04-06T02:19:01.621Z,67.90
2023-04-06T02:21:32.201Z,71.00
2023-04-06T02:24:07.734Z,63.30
2023-04-06T02:26:38.132Z,60.60
2023-04-06T02:29:08.873Z,60.50
2023-04-06T02:31:43.612Z,56.80
2023-04-06T02:34:18.946Z,50.20
2023-04-06T02:36:54.853Z,46.70
2023-04-06T02:39:24.901Z,50.90
2023-04-06T02:42:00.292Z,51.50
2023-04-06T02:44:31.152Z,53.90
2023-04-06T02:47:01.376Z,51.60
2023-04-06T02:49:35.337Z,49.20
2023-04-06T02:52:10.522Z,49.90
2023-04-06T02:54:42.306Z,54.70
2023-04-06T02:57:14.344Z,64.60
2023-04-06T02:59:47.043Z,66.80
2023-04-06T03:02:21.829Z,67.40
2023-04-06T03:04:56.659Z,64.70
2023-04-06T03:07:31.095Z,66.90
2023-04-06T03:10:03.714Z,64.30
2023-04-06T03:12:35.032Z,60.70
2023-04-06T03:15:25.163Z,64.20
2023-04-06T03:18:03.169Z,56.10
2023-04-06T03:20:48.635Z,51.20
2023-04-06T03:23:26.534Z,51.60
2023-04-06T03:26:23.029Z,45.90
2023-04-06T03:29:03.692Z,51.90
2023-04-06T03:31:35.023Z,57.90
2023-04-06T03:34:29.689Z,61.20
2023-04-06T03:37:09.296Z,62.90
2023-04-06T03:39:40.927Z,64.30
2023-04-06T03:42:13.845Z,66.20
2023-04-06T03:44:52.943Z,66.70
2023-04-06T03:47:25.876Z,67.00
2023-04-06T03:49:59.874Z,69.00
2023-04-06T03:52:30.399Z,65.30
2023-04-06T03:55:01.027Z,63.40
2023-04-06T03:57:35.828Z,63.50
2023-04-06T04:00:12.016Z,59.40
2023-04-06T04:02:44.995Z,60.30
2023-04-06T04:05:15.380Z,60.80
2023-04-06T04:07:45.682Z,67.50
2023-04-06T04:10:19.289Z,63.80
2023-04-06T04:12:56.834Z,60.30
2023-04-06T04:15:26.807Z,73.30
2023-04-06T04:17:56.889Z,69.50
2023-04-06T04:20:29.793Z,64.40
2023-04-06T04:23:04.765Z,62.00
2023-04-06T04:25:38.988Z,61.50
2023-04-06T04:28:09.691Z,62.90
2023-04-06T04:30:40.120Z,62.00
2023-04-06T04:33:12.042Z,66.00
2023-04-06T04:35:41.703Z,68.80
2023-04-06T04:38:12.939Z,67.00
2023-04-06T04:40:47.435Z,69.50
2023-04-06T04:43:20.050Z,71.00
2023-04-06T04:45:55.684Z,68.20
2023-04-06T04:48:36.571Z,66.30
2023-04-06T04:51:14.391Z,65.20
2023-04-06T04:53:56.051Z,64.00
2023-04-06T04:56:33.582Z,66.10
2023-04-06T04:59:17.544Z,66.70
2023-04-06T05:01:55.381Z,67.50
2023-04-06T05:04:31.235Z,67.00
2023-04-06T05:07:11.013Z,66.40
2023-04-06T05:09:41.871Z,62.00
2023-04-06T05:12:11.504Z,63.50
2023-04-06T05:14:49.258Z,60.50
2023-04-06T05:17:22.901Z,61.90
2023-04-06T05:22:27.904Z,57.80
2023-04-06T05:25:07.102Z,58.70
2023-04-06T05:27:36.970Z,56.90
2023-04-06T05:30:10.715Z,60.20
2023-04-06T05:32:47.037Z,61.40
2023-04-06T05:35:29.039Z,65.60
2023-04-06T05:38:04.872Z,66.30
2023-04-06T05:40:38.200Z,61.50
2023-04-06T05:43:10.568Z,64.70
2023-04-06T05:45:48.131Z,62.20
2023-04-06T05:48:20.400Z,58.20
2023-04-06T05:50:55.659Z,52.40
2023-04-06T05:53:30.809Z,55.70
2023-04-06T05:56:07.279Z,57.20
2023-04-06T05:58:37.163Z,51.30
2023-04-06T06:01:10.992Z,57.30
2023-04-06T06:03:52.194Z,55.90
2023-04-06T06:06:27.423Z,56.20
2023-04-06T06:09:25.706Z,59.60
2023-04-06T06:12:03.487Z,63.70
2023-04-06T06:14:33.736Z,59.90
2023-04-06T06:17:05.404Z,62.60
2023-04-06T06:19:38.864Z,64.50
2023-04-06T06:22:11.638Z,60.40
2023-04-06T06:24:44.597Z,62.70
2023-04-06T06:27:15.172Z,62.70
2023-04-06T06:29:47.388Z,61.50
2023-04-06T06:32:17.887Z,61.00
2023-04-06T06:34:49.665Z,62.50
2023-04-06T06:37:22.640Z,63.30
2023-04-06T06:39:52.752Z,62.20
2023-04-06T06:42:24.607Z,60.10
2023-04-06T06:45:12.642Z,59.40
2023-04-06T06:47:43.236Z,37.90
2023-04-06T06:50:14.676Z,37.50
2023-04-06T06:52:44.857Z,34.80
2023-04-06T06:55:14.659Z,27.50
2023-04-06T06:57:47.576Z,14.30
2023-04-06T07:00:22.126Z,15.90
2023-04-06T07:02:56.308Z,13.60
2023-04-06T07:05:29.008Z,14.30
2023-04-06T07:08:03.388Z,12.70
2023-04-06T07:10:34.271Z,9.60
2023-04-06T07:13:04.441Z,12.60
2023-04-06T07:15:34.366Z,6.00
2023-04-06T07:18:04.943Z,6.10
2023-04-06T07:20:40.192Z,5.70
2023-04-06T07:23:12.434Z,7.00
2023-04-06T07:25:44.703Z,7.80
2023-04-06T07:30:44.446Z,8.50
2023-04-06T07:33:14.876Z,8.90
2023-04-06T07:35:47.447Z,8.40
2023-04-06T07:38:17.898Z,7.00
2023-04-06T07:40:49.013Z,15.80
2023-04-06T07:43:26.012Z,8.20
2023-04-06T07:46:03.785Z,6.70
2023-04-06T07:48:40.127Z,6.00
2023-04-06T07:51:16.858Z,6.60
2023-04-06T07:53:57.025Z,6.40
2023-04-06T07:56:26.927Z,7.20
2023-04-06T07:58:59.501Z,6.60
2023-04-06T08:01:32.664Z,6.90
2023-04-06T08:04:03.891Z,6.50
2023-04-06T08:06:39.686Z,5.70
2023-04-06T08:09:14.982Z,7.60
2023-04-06T08:11:47.598Z,6.70
2023-04-06T08:14:17.360Z,6.60
2023-04-06T08:16:52.281Z,5.00
2023-04-06T08:19:24.467Z,5.10
2023-04-06T08:21:56.917Z,4.80
2023-04-06T08:24:28.265Z,5.30
2023-04-06T08:27:10.073Z,4.20
2023-04-06T08:29:40.876Z,5.80
2023-04-06T08:32:14.216Z,5.90
2023-04-06T08:34:53.165Z,4.50
2023-04-06T08:37:27.423Z,4.70
2023-04-06T08:40:11.023Z,6.90
2023-04-06T08:43:16.099Z,5.70
2023-04-06T08:46:30.372Z,5.30
2023-04-06T08:49:05.682Z,4.90
2023-04-06T08:51:43.277Z,5.00
2023-04-06T08:54:23.850Z,6.10
2023-04-06T08:57:01.852Z,5.50
2023-04-06T08:59:33.320Z,6.10
2023-04-06T09:02:07.983Z,5.50
2023-04-06T09:04:55.118Z,6.20
2023-04-06T09:07:35.538Z,6.10
2023-04-06T09:10:27.741Z,5.70
2023-04-06T09:13:20.238Z,6.10
2023-04-06T09:16:14.284Z,6.70
2023-04-06T09:19:27.247Z,6.60
2023-04-06T09:22:11.734Z,6.20
2023-04-06T09:24:55.971Z,5.70
2023-04-06T09:27:35.498Z,6.10
2023-04-06T09:30:12.421Z,5.00
2023-04-06T09:33:12.255Z,6.20
2023-04-06T09:35:51.544Z,6.60
2023-04-06T09:38:24.061Z,5.80
2023-04-06T09:41:01.369Z,5.70
2023-04-06T09:43:32.953Z,8.10
2023-04-06T09:46:06.818Z,6.60
2023-04-06T09:48:37.524Z,6.10
2023-04-06T09:51:11.058Z,6.50
2023-04-06T09:54:04.318Z,5.80
2023-04-06T09:57:21.422Z,6.90
2023-04-06T10:00:16.878Z,7.80
2023-04-06T10:03:13.167Z,8.20
2023-04-06T10:06:02.881Z,7.40
2023-04-06T10:08:42.077Z,6.90
2023-04-06T10:11:17.758Z,6.30
2023-04-06T10:14:02.292Z,8.10
2023-04-06T10:16:37.755Z,8.20
2023-04-06T10:19:17.927Z,8.10
2023-04-06T10:21:58.690Z,9.20
2023-04-06T10:24:32.226Z,8.50
2023-04-06T10:27:07.932Z,8.50
2023-04-06T10:29:58.110Z,6.80
2023-04-06T10:32:42.011Z,7.80
2023-04-06T10:35:17.625Z,8.00
2023-04-06T10:38:04.020Z,8.30
2023-04-06T10:40:43.067Z,7.30
2023-04-06T10:43:22.513Z,8.30
2023-04-06T10:46:02.856Z,7.80
2023-04-06T10:48:59.218Z,8.80
2023-04-06T10:51:29.917Z,10.00
2023-04-06T10:54:01.396Z,8.90
2023-04-06T10:56:33.172Z,9.20
2023-04-06T10:59:02.583Z,8.30
2023-04-06T11:01:32.190Z,9.50
2023-04-06T11:04:01.453Z,9.10
2023-04-06T11:06:33.521Z,9.00
2023-04-06T11:09:02.769Z,9.20
2023-04-06T11:11:31.998Z,9.30
2023-04-06T11:14:02.292Z,11.10
2023-04-06T11:16:34.291Z,10.60
2023-04-06T11:21:40.668Z,9.60
2023-04-06T11:24:24.246Z,9.10
2023-04-06T11:26:59.538Z,9.10
2023-04-06T11:29:34.579Z,8.80
2023-04-06T11:32:09.275Z,8.40
2023-04-06T11:34:42.194Z,9.30
2023-04-06T11:37:13.542Z,9.50
2023-04-06T11:39:55.481Z,8.40
2023-04-06T11:42:30.687Z,7.90
2023-04-06T11:45:01.466Z,7.60
2023-04-06T11:47:34.359Z,9.20
2023-04-06T11:50:15.396Z,8.70
2023-04-06T11:52:45.539Z,8.20
2023-04-06T11:55:20.390Z,8.20
2023-04-06T11:57:51.043Z,8.10
2023-04-06T12:00:22.984Z,7.90
2023-04-06T12:02:53.187Z,8.70
2023-04-06T12:05:22.842Z,9.30
2023-04-06T12:07:52.376Z,7.40
2023-04-06T12:10:22.086Z,7.50
2023-04-06T12:12:52.093Z,8.90
2023-04-06T12:15:21.506Z,9.00
2023-04-06T12:17:51.350Z,7.40
2023-04-06T12:20:25.733Z,9.60
2023-04-06T12:22:57.137Z,8.70
2023-04-06T12:25:26.636Z,8.50
2023-04-06T12:27:56.555Z,9.60
2023-04-06T12:30:26.467Z,9.30
2023-04-06T12:32:56.349Z,8.60
2023-04-06T12:35:26.491Z,9.50
2023-04-06T12:37:56.202Z,8.70
2023-04-06T12:40:26.223Z,8.80
2023-04-06T12:42:56.144Z,8.00
2023-04-06T12:45:26.159Z,9.00
2023-04-06T12:48:00.199Z,8.50
2023-04-06T12:50:29.560Z,9.20
2023-04-06T12:52:58.930Z,8.20
2023-04-06T12:55:32.654Z,8.80
2023-04-06T12:58:02.595Z,8.60
2023-04-06T13:00:32.429Z,8.40
2023-04-06T13:03:02.319Z,8.80
2023-04-06T13:05:32.477Z,8.60
2023-04-06T13:08:03.758Z,7.80
2023-04-06T13:10:33.703Z,7.20
2023-04-06T13:13:03.225Z,8.70
2023-04-06T13:15:34.093Z,7.30
2023-04-06T13:18:05.082Z,8.50
2023-04-06T13:20:35.572Z,7.50
2023-04-06T13:23:04.867Z,7.00
2023-04-06T13:25:34.498Z,7.60
2023-04-06T13:28:04.493Z,6.90
2023-04-06T13:30:34.712Z,8.10
2023-04-06T13:33:05.890Z,8.60
2023-04-06T13:35:37.007Z,8.70
2023-04-06T13:38:06.790Z,7.50
2023-04-06T13:40:36.192Z,8.00
2023-04-06T13:43:05.739Z,7.10
2023-04-06T13:45:35.597Z,7.00
2023-04-06T13:48:05.892Z,7.30
2023-04-06T13:50:36.457Z,8.10
2023-04-06T13:53:06.210Z,6.80
2023-04-06T13:55:35.785Z,7.00
2023-04-06T13:58:05.533Z,8.30
2023-04-06T14:00:38.436Z,7.10
2023-04-06T14:03:08.278Z,6.70
2023-04-06T14:05:46.559Z,8.40
2023-04-06T14:08:23.332Z,7.00
2023-04-06T14:10:53.396Z,8.30
2023-04-06T14:13:24.759Z,7.70
2023-04-06T14:15:59.079Z,8.20
2023-04-06T14:18:32.196Z,8.00
2023-04-06T14:21:04.898Z,7.00
2023-04-06T14:23:35.137Z,7.20
2023-04-06T14:26:07.012Z,8.10
2023-04-06T14:31:16.283Z,7.60
2023-04-06T14:33:46.766Z,7.60
2023-04-06T14:36:17.088Z,6.40
2023-04-06T14:38:48.442Z,6.70
2023-04-06T14:41:20.397Z,8.40
2023-04-06T14:43:50.540Z,7.10
2023-04-06T14:46:20.270Z,8.60
2023-04-06T14:48:49.762Z,7.60
2023-04-06T14:51:19.554Z,7.40
2023-04-06T14:53:49.459Z,9.20
2023-04-06T14:56:32.467Z,9.00
2023-04-06T14:59:06.877Z,10.10
2023-04-06T15:01:37.203Z,8.00
2023-04-06T15:04:07.339Z,7.60
2023-04-06T15:06:37.368Z,9.50
2023-04-06T15:09:06.929Z,9.50
2023-04-06T15:11:36.663Z,7.60
2023-04-06T15:14:07.545Z,7.20
2023-04-06T15:16:37.305Z,6.40
2023-04-06T15:19:09.949Z,6.40
2023-04-06T15:21:40.087Z,7.10
2023-04-06T15:24:09.985Z,6.20
2023-04-06T15:26:39.710Z,6.70
2023-04-06T15:29:09.535Z,7.10
2023-04-06T15:31:40.250Z,8.00
2023-04-06T15:34:10.170Z,7.60
2023-04-06T15:36:44.468Z,7.60
2023-04-06T15:39:21.520Z,6.30
2023-04-06T15:41:51.673Z,7.70
2023-04-06T15:44:24.492Z,8.80
2023-04-06T15:46:54.209Z,8.90
2023-04-06T15:49:23.775Z,7.30
2023-04-06T15:51:53.204Z,7.10
2023-04-06T15:54:22.909Z,7.40
2023-04-06T15:56:52.603Z,8.80
2023-04-06T15:59:22.192Z,8.70
2023-04-06T16:01:51.625Z,9.20
2023-04-06T16:04:21.176Z,10.20
2023-04-06T16:06:51.018Z,11.00
2023-04-06T16:09:23.413Z,10.30
2023-04-06T16:11:55.649Z,8.20
2023-04-06T16:14:25.769Z,10.00
2023-04-06T16:16:55.965Z,10.30
2023-04-06T16:19:25.799Z,9.90
2023-04-06T16:21:58.055Z,11.00
2023-04-06T16:24:29.389Z,10.20
2023-04-06T16:26:59.255Z,12.30
2023-04-06T16:29:35.949Z,10.80
2023-04-06T16:32:05.480Z,12.40
2023-04-06T16:34:35.559Z,13.80
2023-04-06T16:37:04.972Z,15.50
2023-04-06T16:39:35.004Z,11.70
2023-04-06T16:42:07.737Z,12.90
2023-04-06T16:44:37.341Z,16.40
2023-04-06T16:47:13.373Z,17.50
2023-04-06T16:49:45.348Z,15.90
2023-04-06T16:52:15.257Z,15.10
2023-04-06T16:54:47.293Z,15.40
2023-04-06T16:57:17.135Z,15.30
2023-04-06T16:59:47.254Z,13.50
2023-04-06T17:02:16.914Z,14.40
2023-04-06T17:04:46.467Z,13.40
2023-04-06T17:07:15.934Z,14.70
2023-04-06T17:09:49.770Z,9.60
2023-04-06T17:12:19.350Z,11.40
2023-04-06T17:14:49.082Z,9.80
2023-04-06T17:17:18.896Z,12.20
2023-04-06T17:19:48.615Z,14.40
2023-04-06T17:22:21.350Z,14.10
2023-04-06T17:24:51.586Z,14.90
2023-04-06T17:27:23.792Z,12.80
2023-04-06T17:32:22.852Z,13.40
2023-04-06T17:34:52.239Z,11.60
2023-04-06T17:37:26.888Z,11.30
2023-04-06T17:39:58.849Z,20.00
2023-04-06T17:42:30.965Z,12.30
2023-04-06T17:45:01.740Z,9.40
2023-04-06T17:47:33.398Z,9.10
2023-04-06T17:50:03.790Z,8.90
2023-04-06T17:52:39.020Z,10.30
2023-04-06T17:55:09.565Z,11.20
2023-04-06T17:57:46.428Z,9.90
2023-04-06T18:00:20.237Z,10.50
2023-04-06T18:02:49.550Z,11.80
2023-04-06T18:05:22.822Z,9.50
2023-04-06T18:07:52.923Z,10.00
2023-04-06T18:10:23.173Z,10.30
2023-04-06T18:12:52.459Z,10.80
2023-04-06T18:15:22.021Z,10.90
2023-04-06T18:17:51.434Z,10.10
2023-04-06T18:20:20.869Z,10.60
2023-04-06T18:25:20.628Z,11.90
2023-04-06T18:27:49.782Z,11.40
2023-04-06T18:30:20.254Z,12.40
2023-04-06T18:35:22.173Z,12.80
2023-04-06T18:37:51.551Z,12.10
2023-04-06T18:40:38.828Z,13.00
2023-04-06T18:43:09.278Z,10.70
2023-04-06T18:45:39.154Z,10.10
2023-04-06T18:48:08.521Z,10.90
2023-04-06T18:50:37.754Z,14.10
2023-04-06T18:53:10.487Z,15.40
2023-04-06T18:55:39.752Z,18.70
2023-04-06T18:58:08.831Z,14.50
2023-04-06T19:00:41.904Z,14.70
2023-04-06T19:03:11.277Z,12.30
2023-04-06T19:05:43.804Z,16.20
2023-04-06T19:08:13.365Z,15.90
2023-04-06T19:10:42.663Z,17.70
2023-04-06T19:13:12.097Z,16.40
2023-04-06T19:15:44.612Z,14.90
2023-04-06T19:18:13.797Z,13.60
2023-04-06T19:20:42.852Z,12.00
2023-04-06T19:23:12.822Z,15.40
2023-04-06T19:25:45.115Z,19.70
2023-04-06T19:28:15.113Z,33.70
2023-04-06T19:30:45.551Z,17.30
2023-04-06T19:33:16.478Z,19.10
2023-04-06T19:35:46.034Z,18.00
2023-04-06T19:38:15.513Z,16.00
2023-04-06T19:40:44.754Z,15.90
2023-04-06T19:43:14.046Z,16.80
2023-04-06T19:45:43.665Z,16.10
2023-04-06T19:48:13.626Z,19.60
2023-04-06T19:50:43.090Z,15.70
2023-04-06T19:53:12.677Z,22.30
2023-04-06T19:55:41.907Z,16.30
2023-04-06T19:58:11.431Z,21.60
2023-04-06T20:00:40.853Z,21.50
2023-04-06T20:03:11.414Z,17.60
2023-04-06T20:05:41.135Z,24.00
2023-04-06T20:08:10.542Z,26.20
2023-04-06T20:10:39.728Z,28.90
2023-04-06T20:13:08.851Z,22.70
2023-04-06T20:15:38.095Z,16.80
2023-04-06T20:18:07.413Z,15.70
2023-04-06T20:20:36.801Z,17.00
2023-04-06T20:23:06.242Z,97.70
2023-04-06T20:25:35.513Z,30.50
2023-04-06T20:28:05.732Z,22.90
2023-04-06T20:30:35.866Z,23.10
2023-04-06T20:33:05.003Z,21.40
2023-04-06T20:35:37.125Z,20.00
2023-04-06T20:40:36.016Z,23.40
2023-04-06T20:43:06.124Z,22.80
2023-04-06T20:45:39.517Z,26.10
2023-04-06T20:48:08.736Z,24.00
2023-04-06T20:50:52.886Z,21.00
2023-04-06T20:53:27.741Z,15.80
2023-04-06T20:55:58.419Z,11.70
2023-04-06T20:58:27.969Z,10.80
2023-04-06T21:00:57.733Z,11.30
2023-04-06T21:03:27.980Z,11.30
2023-04-06T21:06:02.461Z,12.10
2023-04-06T21:08:31.789Z,14.20
2023-04-06T21:11:02.285Z,15.10
2023-04-06T21:13:32.223Z,14.60
2023-04-06T21:16:05.137Z,17.00
2023-04-06T21:18:34.728Z,17.10
2023-04-06T21:21:04.432Z,17.30
2023-04-06T21:23:34.308Z,16.00
2023-04-06T21:26:03.868Z,17.50
2023-04-06T21:28:33.356Z,15.90
2023-04-06T21:31:08.349Z,16.10
2023-04-06T21:33:41.494Z,17.30
2023-04-06T21:36:14.808Z,16.10
2023-04-06T21:38:44.179Z,16.50
2023-04-06T21:41:13.387Z,14.90
2023-04-06T21:43:42.423Z,15.20
2023-04-06T21:46:11.769Z,16.80
2023-04-06T21:48:40.959Z,16.30
2023-04-06T21:51:20.580Z,16.70
2023-04-06T21:53:50.336Z,16.40
2023-04-06T21:56:24.883Z,14.30
2023-04-06T21:58:54.424Z,15.80
2023-04-06T22:01:23.698Z,15.20
2023-04-06T22:03:53.500Z,14.70
2023-04-06T22:06:25.212Z,15.80
2023-04-06T22:08:54.987Z,16.50
2023-04-06T22:11:24.229Z,16.00
2023-04-06T22:13:53.463Z,12.30
2023-04-06T22:16:22.616Z,10.90
2023-04-06T22:18:51.880Z,11.30
2023-04-06T22:21:21.275Z,12.00
2023-04-06T22:23:51.365Z,13.00
2023-04-06T22:26:21.045Z,13.00
2023-04-06T22:28:50.235Z,12.70
2023-04-06T22:31:19.858Z,11.80
2023-04-06T22:33:49.125Z,12.40
2023-04-06T22:36:18.255Z,11.20
2023-04-06T22:38:49.528Z,9.90
2023-04-06T22:41:18.714Z,10.70
2023-04-06T22:43:47.866Z,10.70
2023-04-06T22:46:16.876Z,11.00
2023-04-06T22:48:45.974Z,11.90
2023-04-06T22:51:15.598Z,11.80
2023-04-06T22:53:44.634Z,10.10
2023-04-06T22:56:13.845Z,10.80
2023-04-06T22:58:42.935Z,10.30
2023-04-06T23:01:11.991Z,9.10
2023-04-06T23:03:41.163Z,11.10
2023-04-06T23:06:10.616Z,10.20
2023-04-06T23:08:39.581Z,9.90
2023-04-06T23:11:08.725Z,10.90
2023-04-06T23:13:37.698Z,9.60
2023-04-06T23:16:09.433Z,10.70
2023-04-06T23:18:38.650Z,10.40
2023-04-06T23:21:08.141Z,10.30
2023-04-06T23:23:37.089Z,9.60
2023-04-06T23:26:06.248Z,11.30
2023-04-06T23:28:41.305Z,12.00
2023-04-06T23:31:10.722Z,12.90
2023-04-06T23:33:39.591Z,17.00
2023-04-06T23:36:09.245Z,16.20
2023-04-06T23:38:38.282Z,15.00
2023-04-06T23:41:07.442Z,14.40
2023-04-06T23:43:36.568Z,13.60
2023-04-06T23:46:06.179Z,13.30
2023-04-06T23:48:35.282Z,13.30
2023-04-06T23:51:04.369Z,13.80
2023-04-06T23:53:33.583Z,13.70
2023-04-06T23:56:02.746Z,13.50
2023-04-06T23:58:31.826Z,12.50
